Toyofujimaru No.2 — 7JDI — position and weather

sailwx.info

Track history (hours):
 
Tides and Currents Weather Stations Pressure Air Temp Water Temp Dewpoint Dewpoint Depression Visibility Wind Speed Wind Dir Waves Ship Positions

Toyofujimaru No.2

Last reported at 2015-May-18 12:28 UTC. Time now 2015-May-22 08:37 UTC.
Position N 22°02' E 113°51'.

Length 165 m; draft 6.3 m.

Type: Cargo ship. MMSI: 432667000.

Date/timePositionNaut miles runAvg speedWind from/ knotsBaromVisibWave heightAir tempDewpointWater temp
2015-May-18 12:28N 22°02' E 113°51'1212.7
2015-May-18 11:33N 22°13' E 113°48'1514.6
2015-May-18 10:31N 22°28' E 113°45'1414.3
2015-May-18 09:33N 22°42' E 113°41'1211.8
2015-May-18 08:33N 22°51' E 113°34'9 9.4
2015-May-18 07:33N 23°00' E 113°32'0 0.3
2015-May-18 06:33N 23°01' E 113°32'0 0.0
2015-May-18 05:31N 23°01' E 113°32'0 0.0
2015-May-18 04:31N 23°01' E 113°32'0 0.0
2015-May-18 03:31N 23°01' E 113°32'0 0.0
2015-May-18 02:13N 23°01' E 113°32'0 0.0
2015-May-18 01:31N 23°01' E 113°32'0 0.0
2015-May-18 00:25N 23°01' E 113°32'0 0.0
2015-May-17 23:31N 23°01' E 113°32'0 0.0
2015-May-17 22:31N 23°01' E 113°32'3 3.0
2015-May-17 21:34N 22°58' E 113°33'8 7.8
2015-May-17 20:33N 22°50' E 113°35'9 9.2
2015-May-17 19:33N 22°43' E 113°41'2512.7
2015-May-17 17:33N 22°18' E 113°48'1010.1
2015-May-17 16:33N 22°08' E 113°48'1 0.9
2015-May-17 15:29N 22°08' E 113°47'0 0.0
2015-May-17 14:29N 22°08' E 113°47'0 0.0
2015-May-17 13:30N 22°08' E 113°47'7 7.0
2015-May-17 12:33N 22°06' E 113°54'1614.2
2015-May-17 11:25N 22°12' E 114°10'8 9.3
2015-May-17 10:33N 22°19' E 114°06'2 1.6
2015-May-17 09:33N 22°21' E 114°07'0 0.0
2015-May-17 08:33N 22°21' E 114°07'0 0.0
2015-May-17 07:27N 22°21' E 114°07'0 0.0
2015-May-17 06:33N 22°21' E 114°07'0 0.0
2015-May-17 05:33N 22°21' E 114°07'0 0.0
2015-May-17 04:33N 22°21' E 114°07'1 0.6
2015-May-17 03:33N 22°20' E 114°07'8 7.9
2015-May-17 02:33N 22°13' E 114°10'8 8.2
2015-May-17 01:33N 22°09' E 114°18'13818.9
2015-May-16 18:14N 22°47' E 116°42'12120.0
2015-May-16 12:11N 23°49' E 118°35'1518.9
2015-May-16 11:24N 23°57' E 118°49'3518.9
2015-May-16 09:33N 24°15' E 119°21'78617.3
2015-May-14 12:14N 33°38' E 129°47'1318.7
2015-May-14 11:33N 33°43' E 130°01'1615.5
2015-May-14 10:33N 33°39' E 130°19'4 4.4
2015-May-14 09:33N 33°39' E 130°24'0 0.0
2015-May-14 08:33N 33°39' E 130°24'0 0.0
2015-May-14 07:33N 33°39' E 130°24'0 0.0
2015-May-14 06:33N 33°39' E 130°24'0 0.0
2015-May-14 05:33N 33°39' E 130°24'0 0.0
2015-May-14 04:32N 33°39' E 130°24'0 0.0
2015-May-14 03:33N 33°39' E 130°24'0 0.0
2015-May-14 02:32N 33°39' E 130°24'0 0.0
2015-May-14 01:32N 33°39' E 130°24'7 6.6
2015-May-14 00:32N 33°39' E 130°17'2017.9
2015-May-13 23:26N 33°57' E 130°27'1918.9
2015-May-13 22:25N 34°02' E 130°49'  
2015-May-11 10:10N 33°51' E 135°00'1017.3
2015-May-11 09:33N 34°02' E 134°58'1414.3
2015-May-11 08:34N 34°16' E 134°58'1717.2
2015-May-11 07:33N 34°29' E 135°12'10 9.5
2015-May-11 06:32N 34°31' E 135°23'0 0.1
2015-May-11 05:24N 34°31' E 135°23'0 0.0
2015-May-11 03:24N 34°31' E 135°23'0 0.0
2015-May-11 02:30N 34°31' E 135°23'0 0.0
2015-May-11 01:12N 34°31' E 135°23'0 0.0
2015-May-10 22:33N 34°31' E 135°23'5 5.2
2015-May-10 21:33N 34°31' E 135°17'1919.2
2015-May-10 20:33N 34°18' E 135°00'1515.0
2015-May-10 19:33N 34°03' E 134°59'223 7.1
2015-May-09 12:08N 34°35' E 139°26'1318.1
2015-May-09 11:26N 34°34' E 139°41'1618.3
2015-May-09 10:33N 34°50' E 139°42'1717.5
2015-May-09 09:33N 35°07' E 139°45'1111.2
2015-May-09 08:33N 35°19' E 139°44'1010.1
2015-May-09 07:33N 35°28' E 139°42'1 0.7
2015-May-09 06:32N 35°28' E 139°41'0 0.0
2015-May-09 05:32N 35°28' E 139°41'0 0.0
2015-May-09 04:32N 35°28' E 139°41'0 0.0
2015-May-09 03:32N 35°28' E 139°41'0 0.0
2015-May-09 02:32N 35°28' E 139°41'0 0.0
2015-May-09 01:32N 35°28' E 139°41'0 0.0
2015-May-09 00:32N 35°28' E 139°41'0 0.0
2015-May-08 23:32N 35°28' E 139°41'0 0.0
2015-May-08 22:32N 35°28' E 139°41'0 0.0
2015-May-08 21:32N 35°28' E 139°41'0 0.0
2015-May-08 20:32N 35°28' E 139°41'0 0.0
2015-May-08 19:32N 35°28' E 139°41'0 0.0
2015-May-08 18:32N 35°28' E 139°41'0 0.0
2015-May-08 17:32N 35°28' E 139°41'0 0.0
2015-May-08 16:32N 35°28' E 139°41'0 0.0
2015-May-08 15:32N 35°28' E 139°41'0 0.0
2015-May-08 14:32N 35°28' E 139°41'0 0.0
2015-May-08 13:32N 35°28' E 139°41'0 0.0
2015-May-08 12:32N 35°28' E 139°41'  
Track history (hours):
 
Tides and Currents Weather Stations Pressure Air Temp Water Temp Dewpoint Dewpoint Depression Visibility Wind Speed Wind Dir Waves Ship Positions

Toyofujimaru No.2

Last reported at 2015-May-18 12:28 UTC. Time now 2015-May-22 08:37 UTC.
Position N 22°02' E 113°51'.

Length 165 m; draft 6.3 m.

Type: Cargo ship. MMSI: 432667000.

Date/timePositionNaut miles runAvg speedWind from/ knotsBaromVisibWave heightAir tempDewpointWater temp
2015-May-18 12:28N 22°02' E 113°51'1212.7
2015-May-18 11:33N 22°13' E 113°48'1514.6
2015-May-18 10:31N 22°28' E 113°45'1414.3
2015-May-18 09:33N 22°42' E 113°41'1211.8
2015-May-18 08:33N 22°51' E 113°34'9 9.4
2015-May-18 07:33N 23°00' E 113°32'0 0.3
2015-May-18 06:33N 23°01' E 113°32'0 0.0
2015-May-18 05:31N 23°01' E 113°32'0 0.0
2015-May-18 04:31N 23°01' E 113°32'0 0.0
2015-May-18 03:31N 23°01' E 113°32'0 0.0
2015-May-18 02:13N 23°01' E 113°32'0 0.0
2015-May-18 01:31N 23°01' E 113°32'0 0.0
2015-May-18 00:25N 23°01' E 113°32'0 0.0
2015-May-17 23:31N 23°01' E 113°32'0 0.0
2015-May-17 22:31N 23°01' E 113°32'3 3.0
2015-May-17 21:34N 22°58' E 113°33'8 7.8
2015-May-17 20:33N 22°50' E 113°35'9 9.2
2015-May-17 19:33N 22°43' E 113°41'2512.7
2015-May-17 17:33N 22°18' E 113°48'1010.1
2015-May-17 16:33N 22°08' E 113°48'1 0.9
2015-May-17 15:29N 22°08' E 113°47'0 0.0
2015-May-17 14:29N 22°08' E 113°47'0 0.0
2015-May-17 13:30N 22°08' E 113°47'7 7.0
2015-May-17 12:33N 22°06' E 113°54'1614.2
2015-May-17 11:25N 22°12' E 114°10'8 9.3
2015-May-17 10:33N 22°19' E 114°06'2 1.6
2015-May-17 09:33N 22°21' E 114°07'0 0.0
2015-May-17 08:33N 22°21' E 114°07'0 0.0
2015-May-17 07:27N 22°21' E 114°07'0 0.0
2015-May-17 06:33N 22°21' E 114°07'0 0.0
2015-May-17 05:33N 22°21' E 114°07'0 0.0
2015-May-17 04:33N 22°21' E 114°07'1 0.6
2015-May-17 03:33N 22°20' E 114°07'8 7.9
2015-May-17 02:33N 22°13' E 114°10'8 8.2
2015-May-17 01:33N 22°09' E 114°18'13818.9
2015-May-16 18:14N 22°47' E 116°42'12120.0
2015-May-16 12:11N 23°49' E 118°35'1518.9
2015-May-16 11:24N 23°57' E 118°49'3518.9
2015-May-16 09:33N 24°15' E 119°21'78617.3
2015-May-14 12:14N 33°38' E 129°47'1318.7
2015-May-14 11:33N 33°43' E 130°01'1615.5
2015-May-14 10:33N 33°39' E 130°19'4 4.4
2015-May-14 09:33N 33°39' E 130°24'0 0.0
2015-May-14 08:33N 33°39' E 130°24'0 0.0
2015-May-14 07:33N 33°39' E 130°24'0 0.0
2015-May-14 06:33N 33°39' E 130°24'0 0.0
2015-May-14 05:33N 33°39' E 130°24'0 0.0
2015-May-14 04:32N 33°39' E 130°24'0 0.0
2015-May-14 03:33N 33°39' E 130°24'0 0.0
2015-May-14 02:32N 33°39' E 130°24'0 0.0
2015-May-14 01:32N 33°39' E 130°24'7 6.6
2015-May-14 00:32N 33°39' E 130°17'2017.9
2015-May-13 23:26N 33°57' E 130°27'1918.9
2015-May-13 22:25N 34°02' E 130°49'  
2015-May-11 10:10N 33°51' E 135°00'1017.3
2015-May-11 09:33N 34°02' E 134°58'1414.3
2015-May-11 08:34N 34°16' E 134°58'1717.2
2015-May-11 07:33N 34°29' E 135°12'10 9.5
2015-May-11 06:32N 34°31' E 135°23'0 0.1
2015-May-11 05:24N 34°31' E 135°23'0 0.0
2015-May-11 03:24N 34°31' E 135°23'0 0.0
2015-May-11 02:30N 34°31' E 135°23'0 0.0
2015-May-11 01:12N 34°31' E 135°23'0 0.0
2015-May-10 22:33N 34°31' E 135°23'5 5.2
2015-May-10 21:33N 34°31' E 135°17'1919.2
2015-May-10 20:33N 34°18' E 135°00'1515.0
2015-May-10 19:33N 34°03' E 134°59'223 7.1
2015-May-09 12:08N 34°35' E 139°26'1318.1
2015-May-09 11:26N 34°34' E 139°41'1618.3
2015-May-09 10:33N 34°50' E 139°42'1717.5
2015-May-09 09:33N 35°07' E 139°45'1111.2
2015-May-09 08:33N 35°19' E 139°44'1010.1
2015-May-09 07:33N 35°28' E 139°42'1 0.7
2015-May-09 06:32N 35°28' E 139°41'0 0.0
2015-May-09 05:32N 35°28' E 139°41'0 0.0
2015-May-09 04:32N 35°28' E 139°41'0 0.0
2015-May-09 03:32N 35°28' E 139°41'0 0.0
2015-May-09 02:32N 35°28' E 139°41'0 0.0
2015-May-09 01:32N 35°28' E 139°41'0 0.0
2015-May-09 00:32N 35°28' E 139°41'0 0.0
2015-May-08 23:32N 35°28' E 139°41'0 0.0
2015-May-08 22:32N 35°28' E 139°41'0 0.0
2015-May-08 21:32N 35°28' E 139°41'0 0.0
2015-May-08 20:32N 35°28' E 139°41'0 0.0
2015-May-08 19:32N 35°28' E 139°41'0 0.0
2015-May-08 18:32N 35°28' E 139°41'0 0.0
2015-May-08 17:32N 35°28' E 139°41'0 0.0
2015-May-08 16:32N 35°28' E 139°41'0 0.0
2015-May-08 15:32N 35°28' E 139°41'0 0.0
2015-May-08 14:32N 35°28' E 139°41'0 0.0
2015-May-08 13:32N 35°28' E 139°41'0 0.0
2015-May-08 12:32N 35°28' E 139°41'  

Dump ship's entire track history